Time;durP1;ratioP1;P1;durP2;ratioP2;P2;SDS_P1;SDS_P2;PMS_P1;PMS_P2;Temp;Humidity;BMP_temperature;BMP_pressure;BME280_temperature;BME280_humidity;BME280_pressure;Samples;Min_cycle;Max_cycle;Signal;HPM_P1;HPM_P2
2022/04/14 00:00:50;;;;;;;14.73;10.28;;;;;;;;;;761813;78;26221;-73
2022/04/14 00:01:55;;;;;;;10.95;9.30;;;;;;;;;;760526;78;26252;-74
2022/04/14 00:04:46;;;;;;;9.93;8.90;;;;;;;;;;762778;77;26228;-73
2022/04/14 00:05:51;;;;;;;12.45;9.70;;;;;;;;;;772631;77;26239;-75
2022/04/14 00:06:58;;;;;;;15.32;10.80;;;;;;;;;;750609;78;26713;-76
2022/04/14 00:11:15;;;;;;;10.58;9.08;;;;;;;;;;753241;79;26285;-76
2022/04/14 00:12:19;;;;;;;11.95;9.75;;;;;;;;;;753286;79;26422;-74
2022/04/14 00:13:23;;;;;;;11.08;9.85;;;;;;;;;;753193;79;26808;-74
2022/04/14 00:14:29;;;;;;;10.75;9.63;;;;;;;;;;753394;79;26347;-75
2022/04/14 00:15:32;;;;;;;13.62;9.45;;;;;;;;;;753768;79;26349;-74
2022/04/14 00:16:37;;;;;;;14.73;10.05;;;;;;;;;;753882;79;26315;-75
2022/04/14 00:19:51;;;;;;;12.33;10.58;;;;;;;;;;753281;79;26269;-74
2022/04/14 00:20:58;;;;;;;11.93;9.90;;;;;;;;;;757173;77;26267;-74
2022/04/14 00:22:20;;;;;;;11.90;9.63;;;;;;;;;;752979;78;26275;-74
2022/04/14 00:23:25;;;;;;;10.65;9.00;;;;;;;;;;755887;78;26271;-74
2022/04/14 00:24:29;;;;;;;10.23;9.03;;;;;;;;;;755832;78;26274;-75
2022/04/14 00:25:50;;;;;;;10.35;8.78;;;;;;;;;;744630;78;26332;-75
2022/04/14 00:26:55;;;;;;;11.38;8.40;;;;;;;;;;747407;78;26259;-74
2022/04/14 00:31:31;;;;;;;13.62;8.33;;;;;;;;;;766335;77;26669;-73
2022/04/14 00:32:35;;;;;;;10.50;7.90;;;;;;;;;;771782;77;26301;-74
2022/04/14 00:33:41;;;;;;;10.30;8.23;;;;;;;;;;748755;78;26811;-74
2022/04/14 00:34:53;;;;;;;9.28;8.25;;;;;;;;;;759526;78;26319;-73
2022/04/14 00:39:42;;;;;;;10.18;8.75;;;;;;;;;;768687;77;26195;-75
2022/04/14 00:40:48;;;;;;;11.18;8.50;;;;;;;;;;738718;78;26371;-74
2022/04/14 00:42:11;;;;;;;9.10;7.95;;;;;;;;;;759017;77;26427;-74
2022/04/14 00:43:21;;;;;;;10.05;8.18;;;;;;;;;;768655;77;26705;-74
2022/04/14 00:44:26;;;;;;;9.05;8.15;;;;;;;;;;755511;78;26784;-73
2022/04/14 00:53:08;;;;;;;10.38;7.87;;;;;;;;;;750633;79;26180;-73
2022/04/14 00:54:11;;;;;;;9.10;8.18;;;;;;;;;;752408;79;26248;-74
2022/04/14 00:55:15;;;;;;;9.20;8.28;;;;;;;;;;757629;77;26674;-74
2022/04/14 00:56:26;;;;;;;9.55;8.00;;;;;;;;;;743404;80;26802;-74
2022/04/14 01:00:07;;;;;;;9.63;7.62;;;;;;;;;;726150;81;26688;-75
2022/04/14 01:01:15;;;;;;;9.15;7.92;;;;;;;;;;738817;80;24782;-74
2022/04/14 01:02:19;;;;;;;8.73;7.60;;;;;;;;;;738876;80;26308;-73
2022/04/14 01:03:24;;;;;;;11.55;8.20;;;;;;;;;;738252;80;26457;-73
2022/04/14 01:04:28;;;;;;;9.95;8.23;;;;;;;;;;738266;80;26385;-74
2022/04/14 01:05:33;;;;;;;11.33;7.83;;;;;;;;;;738334;80;26351;-73
2022/04/14 01:06:40;;;;;;;10.10;8.05;;;;;;;;;;738324;80;26355;-74
2022/04/14 01:10:01;;;;;;;8.25;7.20;;;;;;;;;;738451;80;26301;-74
2022/04/14 01:11:10;;;;;;;10.93;7.95;;;;;;;;;;738371;80;26395;-73
2022/04/14 01:12:14;;;;;;;11.15;8.40;;;;;;;;;;738339;80;26354;-75
2022/04/14 01:13:21;;;;;;;11.25;8.95;;;;;;;;;;738308;80;26382;-74
2022/04/14 01:14:29;;;;;;;10.82;8.15;;;;;;;;;;738333;80;26295;-74
2022/04/14 01:15:34;;;;;;;12.93;7.95;;;;;;;;;;726328;81;26415;-74
2022/04/14 01:16:38;;;;;;;13.32;8.03;;;;;;;;;;716257;81;26734;-73
2022/04/14 01:21:15;;;;;;;14.93;7.70;;;;;;;;;;739256;80;26264;-73
2022/04/14 01:22:19;;;;;;;12.80;8.40;;;;;;;;;;739407;80;26314;-73
2022/04/14 01:30:10;;;;;;;8.15;7.22;;;;;;;;;;723832;82;26729;-73
2022/04/14 01:31:17;;;;;;;10.35;7.62;;;;;;;;;;725425;82;26804;-76
2022/04/14 01:32:39;;;;;;;9.58;6.95;;;;;;;;;;725337;82;26363;-73
2022/04/14 01:33:46;;;;;;;9.33;7.53;;;;;;;;;;726413;82;26339;-72
2022/04/14 01:34:50;;;;;;;11.73;7.97;;;;;;;;;;726552;82;26304;-75
2022/04/14 01:35:59;;;;;;;8.50;7.47;;;;;;;;;;723665;80;26343;-73
2022/04/14 01:37:13;;;;;;;;;;;;;;;;;;;;;
2022/04/14 01:40:28;;;;;;;11.73;7.15;;;;;;;;;;773474;76;26255;-74
2022/04/14 01:41:41;;;;;;;7.92;7.03;;;;;;;;;;766532;76;26306;-73
2022/04/14 01:42:50;;;;;;;8.03;6.95;;;;;;;;;;766511;77;26308;-74
2022/04/14 01:43:54;;;;;;;7.60;6.80;;;;;;;;;;766414;77;26701;-74
2022/04/14 01:53:32;;;;;;;8.55;7.70;;;;;;;;;;779604;76;26579;-74
2022/04/14 01:54:44;;;;;;;8.55;7.62;;;;;;;;;;765753;77;26247;-74
2022/04/14 01:56:07;;;;;;;10.00;8.05;;;;;;;;;;763775;77;26259;-73
2022/04/14 02:00:53;;;;;;;8.48;7.10;;;;;;;;;;746706;79;26733;-75
2022/04/14 02:01:59;;;;;;;8.80;7.12;;;;;;;;;;757191;78;26709;-74
2022/04/14 02:03:03;;;;;;;9.38;8.10;;;;;;;;;;759469;77;26707;-74
2022/04/14 02:04:25;;;;;;;8.08;7.25;;;;;;;;;;757521;78;26273;-74
2022/04/14 02:05:33;;;;;;;9.78;8.30;;;;;;;;;;757787;78;26266;-75
2022/04/14 02:06:36;;;;;;;8.93;7.72;;;;;;;;;;759921;78;26320;-75
2022/04/14 02:09:50;;;;;;;8.65;7.62;;;;;;;;;;802634;73;26249;-73
2022/04/14 02:16:22;;;;;;;8.90;7.92;;;;;;;;;;783658;76;26199;-74
2022/04/14 02:20:59;;;;;;;8.18;7.37;;;;;;;;;;780003;76;26244;-74
2022/04/14 02:22:24;;;;;;;9.45;7.72;;;;;;;;;;780065;76;26323;-74
2022/04/14 02:23:47;;;;;;;9.30;8.28;;;;;;;;;;780056;76;26342;-74
2022/04/14 02:24:55;;;;;;;10.15;7.55;;;;;;;;;;777111;76;26234;-74
2022/04/14 02:26:19;;;;;;;12.05;8.23;;;;;;;;;;777504;76;26364;-74
2022/04/14 02:30:54;;;;;;;8.53;7.55;;;;;;;;;;779576;76;26176;-74
2022/04/14 02:32:00;;;;;;;9.88;7.90;;;;;;;;;;776735;76;26265;-75
2022/04/14 02:33:04;;;;;;;8.83;7.65;;;;;;;;;;791630;75;26239;-76
2022/04/14 02:34:16;;;;;;;8.75;7.95;;;;;;;;;;779891;76;26298;-75
2022/04/14 02:35:20;;;;;;;8.70;7.80;;;;;;;;;;779567;76;26718;-74
2022/04/14 02:36:26;;;;;;;11.00;8.18;;;;;;;;;;776237;76;26250;-75
2022/04/14 02:41:10;;;;;;;8.30;7.20;;;;;;;;;;792016;75;26613;-73
2022/04/14 02:42:14;;;;;;;10.80;7.62;;;;;;;;;;774895;76;26315;-75
2022/04/14 02:43:21;;;;;;;10.30;7.87;;;;;;;;;;803754;74;26220;-76
2022/04/14 02:44:45;;;;;;;8.58;7.67;;;;;;;;;;804187;74;26216;-74
2022/04/14 02:46:07;;;;;;;10.55;8.10;;;;;;;;;;773078;77;26309;-74
2022/04/14 02:52:30;;;;;;;9.98;7.70;;;;;;;;;;774105;77;26292;-73
2022/04/14 02:53:35;;;;;;;10.40;8.08;;;;;;;;;;773443;77;26676;-75
2022/04/14 02:54:47;;;;;;;8.10;7.30;;;;;;;;;;772662;77;26259;-74
2022/04/14 02:55:53;;;;;;;9.13;7.92;;;;;;;;;;772766;77;26250;-75
2022/04/14 02:56:55;;;;;;;9.15;7.65;;;;;;;;;;772611;77;26309;-74
2022/04/14 03:03:11;;;;;;;8.55;7.65;;;;;;;;;;778185;76;26222;-74
2022/04/14 03:04:16;;;;;;;8.33;7.47;;;;;;;;;;778008;76;26235;-74
2022/04/14 03:05:24;;;;;;;10.18;7.85;;;;;;;;;;777993;76;26215;-73
2022/04/14 03:06:27;;;;;;;10.18;7.60;;;;;;;;;;778021;76;26336;-76
2022/04/14 03:09:48;;;;;;;9.25;7.22;;;;;;;;;;778132;76;26618;-74
2022/04/14 03:10:54;;;;;;;11.30;7.95;;;;;;;;;;753675;79;26229;-73
2022/04/14 03:11:57;;;;;;;8.78;7.87;;;;;;;;;;754556;79;26248;-74
2022/04/14 03:13:01;;;;;;;8.48;7.62;;;;;;;;;;754538;79;26240;-76
2022/04/14 03:14:20;;;;;;;12.73;8.20;;;;;;;;;;728179;81;26267;-73
2022/04/14 03:15:32;;;;;;;13.15;8.98;;;;;;;;;;727285;81;26274;-73
2022/04/14 03:20:25;;;;;;;9.43;7.70;;;;;;;;;;772576;77;26172;-74
2022/04/14 03:21:31;;;;;;;11.53;8.30;;;;;;;;;;772624;77;26705;-74
2022/04/14 03:22:34;;;;;;;8.78;7.45;;;;;;;;;;772677;77;26318;-74
2022/04/14 03:23:39;;;;;;;12.30;8.03;;;;;;;;;;743114;79;26253;-74
2022/04/14 03:24:47;;;;;;;9.30;8.30;;;;;;;;;;755665;78;26276;-74
2022/04/14 03:25:53;;;;;;;10.60;8.85;;;;;;;;;;742831;79;26274;-74
2022/04/14 03:29:12;;;;;;;10.03;8.73;;;;;;;;;;742981;80;26275;-75
2022/04/14 03:30:19;;;;;;;12.53;9.03;;;;;;;;;;743923;80;26342;-73
2022/04/14 03:31:23;;;;;;;10.35;8.63;;;;;;;;;;750927;79;26672;-73
2022/04/14 03:32:28;;;;;;;10.85;9.08;;;;;;;;;;735308;80;26337;-74
2022/04/14 03:33:36;;;;;;;9.58;7.78;;;;;;;;;;735267;80;26271;-75
2022/04/14 03:34:53;;;;;;;11.73;9.80;;;;;;;;;;735136;80;26330;-74
2022/04/14 03:35:59;;;;;;;10.78;8.83;;;;;;;;;;734977;79;26264;-73
2022/04/14 03:39:26;;;;;;;12.50;8.98;;;;;;;;;;765522;77;26223;-74
2022/04/14 03:40:32;;;;;;;12.70;8.75;;;;;;;;;;764718;77;26251;-74
2022/04/14 03:41:40;;;;;;;11.38;9.00;;;;;;;;;;764892;77;26710;-74
2022/04/14 03:50:17;;;;;;;11.45;9.05;;;;;;;;;;765108;77;26224;-76
2022/04/14 03:51:22;;;;;;;12.33;8.83;;;;;;;;;;767719;77;26253;-73
2022/04/14 03:52:28;;;;;;;12.43;9.68;;;;;;;;;;768025;77;26730;-73
2022/04/14 03:54:07;;;;;;;11.48;9.25;;;;;;;;;;768165;77;26187;-73
2022/04/14 03:55:14;;;;;;;12.98;9.20;;;;;;;;;;767428;77;26327;-74
2022/04/14 04:00:17;;;;;;;10.15;8.98;;;;;;;;;;741159;80;26721;-75
2022/04/14 04:01:36;;;;;;;12.95;9.43;;;;;;;;;;740118;79;26274;-74
2022/04/14 04:02:46;;;;;;;10.63;8.78;;;;;;;;;;735960;80;26352;-74
2022/04/14 04:03:54;;;;;;;12.75;9.80;;;;;;;;;;740902;80;26324;-74
2022/04/14 04:05:01;;;;;;;11.38;9.05;;;;;;;;;;740889;80;26270;-74
2022/04/14 04:06:06;;;;;;;11.40;9.83;;;;;;;;;;740965;80;26738;-75
2022/04/14 04:09:26;;;;;;;11.53;9.78;;;;;;;;;;741011;80;26197;-74
2022/04/14 04:10:30;;;;;;;10.28;9.18;;;;;;;;;;778761;76;26244;-74
2022/04/14 04:11:34;;;;;;;12.13;10.13;;;;;;;;;;762887;78;26265;-74
2022/04/14 04:12:39;;;;;;;14.55;10.95;;;;;;;;;;765657;76;26315;-75
2022/04/14 04:13:45;;;;;;;13.22;9.75;;;;;;;;;;778826;76;26346;-74
2022/04/14 04:14:52;;;;;;;13.45;10.20;;;;;;;;;;763050;78;26677;-73
2022/04/14 04:15:58;;;;;;;13.28;10.05;;;;;;;;;;763457;77;26265;-75
2022/04/14 04:19:13;;;;;;;14.20;10.50;;;;;;;;;;740218;80;26775;-74
2022/04/14 04:20:16;;;;;;;17.95;11.53;;;;;;;;;;737407;80;26279;-75
2022/04/14 04:21:24;;;;;;;13.48;11.25;;;;;;;;;;737498;80;26285;-73
2022/04/14 04:22:46;;;;;;;15.78;11.75;;;;;;;;;;740053;79;26428;-76
2022/04/14 04:24:08;;;;;;;16.00;11.75;;;;;;;;;;737757;80;26281;-73
2022/04/14 04:25:12;;;;;;;16.93;12.65;;;;;;;;;;737656;80;26355;-74
2022/04/14 04:40:33;;;;;;;17.00;12.23;;;;;;;;;;739725;80;26767;-74
2022/04/14 04:41:37;;;;;;;14.87;11.80;;;;;;;;;;739694;80;26282;-76
2022/04/14 04:42:46;;;;;;;13.50;11.83;;;;;;;;;;739513;80;26327;-76
2022/04/14 04:43:59;;;;;;;14.00;11.08;;;;;;;;;;739294;80;26280;-77
2022/04/14 04:45:12;;;;;;;15.00;11.50;;;;;;;;;;743659;79;26272;-75
2022/04/14 04:48:18;;;;;;;15.55;11.78;;;;;;;;;;739377;80;26225;-74
2022/04/14 04:49:25;;;;;;;13.25;11.88;;;;;;;;;;727423;81;26290;-77
2022/04/14 04:50:36;;;;;;;12.30;11.00;;;;;;;;;;727449;81;26287;-76
2022/04/14 04:51:39;;;;;;;13.60;12.10;;;;;;;;;;727374;81;26340;-76
2022/04/14 04:52:43;;;;;;;18.90;13.13;;;;;;;;;;739882;80;26718;-75
2022/04/14 04:53:49;;;;;;;14.50;12.85;;;;;;;;;;732738;81;26389;-75
2022/04/14 04:54:54;;;;;;;15.72;13.10;;;;;;;;;;727315;81;26361;-75
2022/04/14 04:55:59;;;;;;;15.08;12.98;;;;;;;;;;727300;81;26294;-75
2022/04/14 05:00:15;;;;;;;17.52;13.70;;;;;;;;;;766552;77;26313;-71
2022/04/14 05:01:22;;;;;;;17.10;12.95;;;;;;;;;;766139;77;26243;-75
2022/04/14 05:02:31;;;;;;;15.75;12.85;;;;;;;;;;783383;74;26317;-72
2022/04/14 05:04:00;;;;;;;16.00;12.68;;;;;;;;;;779556;76;26243;-72
2022/04/14 05:05:12;;;;;;;15.40;13.22;;;;;;;;;;782217;74;26703;-72
2022/04/14 05:10:17;;;;;;;15.78;13.00;;;;;;;;;;760723;78;26296;-70
2022/04/14 05:11:24;;;;;;;15.53;13.00;;;;;;;;;;760831;78;26262;-71
2022/04/14 05:12:31;;;;;;;17.77;11.88;;;;;;;;;;750151;79;26367;-71
2022/04/14 05:13:39;;;;;;;17.12;13.53;;;;;;;;;;764645;76;26267;-71
2022/04/14 05:14:44;;;;;;;15.00;13.00;;;;;;;;;;773645;76;26355;-71
2022/04/14 05:15:50;;;;;;;16.93;13.10;;;;;;;;;;760540;78;26272;-71
2022/04/14 05:19:10;;;;;;;16.30;13.55;;;;;;;;;;738269;80;26272;-71
2022/04/14 05:20:21;;;;;;;17.85;13.20;;;;;;;;;;737507;80;26388;-70
2022/04/14 05:28:49;;;;;;;16.82;14.20;;;;;;;;;;724692;82;26681;-73
2022/04/14 05:29:54;;;;;;;16.57;14.63;;;;;;;;;;733114;80;26288;-72
2022/04/14 05:31:01;;;;;;;20.25;16.25;;;;;;;;;;738709;80;26364;-74
2022/04/14 05:32:32;;;;;;;18.87;16.87;;;;;;;;;;738542;80;26339;-71
2022/04/14 05:33:40;;;;;;;17.20;15.40;;;;;;;;;;747378;79;26369;-72
2022/04/14 05:34:51;;;;;;;17.57;14.03;;;;;;;;;;732777;80;26303;-72
2022/04/14 05:38:21;;;;;;;15.65;13.60;;;;;;;;;;743809;80;26203;-71
2022/04/14 05:39:43;;;;;;;15.80;13.58;;;;;;;;;;765792;77;26306;-71
2022/04/14 05:41:08;;;;;;;15.10;13.22;;;;;;;;;;785203;75;26285;-71
2022/04/14 05:42:25;;;;;;;15.18;13.58;;;;;;;;;;786595;75;26238;-72
2022/04/14 05:43:35;;;;;;;17.12;13.85;;;;;;;;;;784464;75;26237;-71
2022/04/14 05:44:54;;;;;;;15.68;13.90;;;;;;;;;;786194;75;26245;-72
2022/04/14 05:48:21;;;;;;;15.28;13.70;;;;;;;;;;786535;75;26229;-72
2022/04/14 05:49:29;;;;;;;21.85;13.83;;;;;;;;;;776226;76;26297;-72
2022/04/14 05:50:36;;;;;;;16.90;14.00;;;;;;;;;;774714;76;26253;-72
2022/04/14 05:51:59;;;;;;;17.05;13.95;;;;;;;;;;776075;76;26265;-70
2022/04/14 05:53:01;;;;;;;18.92;14.07;;;;;;;;;;776088;76;26245;-69
2022/04/14 05:54:05;;;;;;;14.98;13.25;;;;;;;;;;776072;76;26314;-69
2022/04/14 05:55:17;;;;;;;15.75;13.60;;;;;;;;;;776247;76;26764;-69
2022/04/14 05:58:21;;;;;;;15.53;13.83;;;;;;;;;;791571;75;26712;-70
2022/04/14 05:59:24;;;;;;;20.88;14.60;;;;;;;;;;791363;75;26239;-69
2022/04/14 06:00:47;;;;;;;14.80;13.30;;;;;;;;;;787900;74;26236;-70
2022/04/14 06:01:51;;;;;;;15.70;14.00;;;;;;;;;;791397;75;26676;-70
2022/04/14 06:02:59;;;;;;;16.67;14.38;;;;;;;;;;791825;74;26290;-69
2022/04/14 06:04:24;;;;;;;17.92;13.58;;;;;;;;;;747681;79;26259;-69
2022/04/14 06:05:32;;;;;;;17.62;14.50;;;;;;;;;;784507;75;26282;-68
2022/04/14 06:14:02;;;;;;;18.50;13.95;;;;;;;;;;782121;76;26173;-68
2022/04/14 06:15:06;;;;;;;14.98;13.45;;;;;;;;;;782018;76;26244;-69
2022/04/14 06:18:30;;;;;;;13.45;12.05;;;;;;;;;;781522;76;26197;-69
2022/04/14 06:19:38;;;;;;;15.68;13.08;;;;;;;;;;764004;77;26251;-71
2022/04/14 06:20:42;;;;;;;15.00;12.75;;;;;;;;;;763928;77;26267;-71
2022/04/14 06:21:56;;;;;;;14.95;12.40;;;;;;;;;;763876;77;26381;-72
2022/04/14 06:23:00;;;;;;;16.40;12.50;;;;;;;;;;763580;77;26708;-72
2022/04/14 06:24:09;;;;;;;18.70;13.83;;;;;;;;;;763681;77;26255;-70
2022/04/14 06:25:16;;;;;;;14.05;12.70;;;;;;;;;;763568;77;26727;-71
2022/04/14 06:29:48;;;;;;;13.83;12.50;;;;;;;;;;766296;77;26271;-71
2022/04/14 06:30:52;;;;;;;16.57;13.13;;;;;;;;;;766238;77;26318;-71
2022/04/14 06:31:57;;;;;;;15.28;13.75;;;;;;;;;;766345;77;26664;-72
2022/04/14 06:33:06;;;;;;;14.78;12.78;;;;;;;;;;766269;77;26256;-71
2022/04/14 06:34:13;;;;;;;17.70;12.40;;;;;;;;;;766313;77;26267;-71
2022/04/14 06:35:25;;;;;;;14.93;12.43;;;;;;;;;;766359;77;26255;-72
2022/04/14 06:38:25;;;;;;;12.43;11.25;;;;;;;;;;789135;75;26719;-73
2022/04/14 06:39:28;;;;;;;12.70;11.50;;;;;;;;;;788999;75;26323;-70
2022/04/14 06:40:36;;;;;;;17.75;15.88;;;;;;;;;;772827;77;26308;-73
2022/04/14 06:41:44;;;;;;;20.50;18.12;;;;;;;;;;788947;75;26304;-72
2022/04/14 06:42:51;;;;;;;18.80;16.90;;;;;;;;;;789232;75;26237;-71
2022/04/14 06:43:58;;;;;;;16.67;13.53;;;;;;;;;;773085;77;26241;-71
2022/04/14 06:45:04;;;;;;;13.90;12.53;;;;;;;;;;789357;75;26766;-73
2022/04/14 06:51:24;;;;;;;12.23;11.03;;;;;;;;;;789211;75;26628;-71
2022/04/14 06:52:27;;;;;;;12.37;11.08;;;;;;;;;;789331;75;26695;-70
2022/04/14 06:53:32;;;;;;;15.07;12.00;;;;;;;;;;789553;75;26230;-69
2022/04/14 06:54:38;;;;;;;13.08;11.45;;;;;;;;;;789606;75;26723;-70
2022/04/14 06:59:24;;;;;;;12.23;11.00;;;;;;;;;;789753;75;26400;-69
2022/04/14 07:00:29;;;;;;;13.17;11.83;;;;;;;;;;790404;75;26303;-70
2022/04/14 07:01:34;;;;;;;12.70;11.43;;;;;;;;;;790083;75;26544;-69
2022/04/14 07:02:51;;;;;;;14.27;11.53;;;;;;;;;;789366;75;26666;-70
2022/04/14 07:03:55;;;;;;;14.13;11.67;;;;;;;;;;789166;75;26974;-69
2022/04/14 07:05:01;;;;;;;13.27;11.37;;;;;;;;;;789212;75;26392;-68
2022/04/14 07:08:28;;;;;;;11.57;10.33;;;;;;;;;;789662;75;26418;-69
2022/04/14 07:09:36;;;;;;;12.20;10.43;;;;;;;;;;774013;77;26468;-69
2022/04/14 07:10:38;;;;;;;11.57;10.53;;;;;;;;;;790311;75;26462;-69
2022/04/14 07:11:47;;;;;;;11.00;9.90;;;;;;;;;;789391;75;26463;-69
2022/04/14 07:12:50;;;;;;;12.27;10.57;;;;;;;;;;789191;75;26537;-69
2022/04/14 07:13:58;;;;;;;13.43;10.80;;;;;;;;;;789171;75;26462;-70
2022/04/14 07:15:02;;;;;;;14.37;11.33;;;;;;;;;;789075;75;26632;-71
2022/04/14 07:18:03;;;;;;;12.10;10.83;;;;;;;;;;778681;76;26898;-68
2022/04/14 07:19:09;;;;;;;13.30;12.00;;;;;;;;;;778698;76;26498;-69
2022/04/14 07:20:16;;;;;;;12.90;11.60;;;;;;;;;;778673;76;26302;-68
2022/04/14 07:21:20;;;;;;;13.33;12.03;;;;;;;;;;778683;76;26539;-69
2022/04/14 07:22:23;;;;;;;12.60;11.50;;;;;;;;;;778697;76;26694;-69
2022/04/14 07:23:27;;;;;;;12.73;11.50;;;;;;;;;;778610;76;26481;-69
2022/04/14 07:24:43;;;;;;;12.27;11.17;;;;;;;;;;778613;76;26537;-69
2022/04/14 07:29:16;;;;;;;12.60;11.50;;;;;;;;;;788145;75;27029;-71
2022/04/14 07:30:20;;;;;;;12.80;11.60;;;;;;;;;;788963;75;26508;-70
2022/04/14 07:31:23;;;;;;;12.80;10.93;;;;;;;;;;788809;75;26355;-69
2022/04/14 07:32:45;;;;;;;12.07;10.67;;;;;;;;;;788601;75;26458;-69
2022/04/14 07:33:50;;;;;;;11.90;10.80;;;;;;;;;;788457;75;26978;-70
2022/04/14 07:34:56;;;;;;;16.80;10.90;;;;;;;;;;787858;74;26895;-69
2022/04/14 07:39:57;;;;;;;17.83;15.23;;;;;;;;;;753538;79;26470;-69
2022/04/14 07:41:05;;;;;;;14.23;12.93;;;;;;;;;;753465;79;26470;-69
2022/04/14 07:51:03;;;;;;;12.00;10.77;;;;;;;;;;754962;78;26293;-68
2022/04/14 07:52:08;;;;;;;11.30;10.23;;;;;;;;;;753459;79;26456;-69
2022/04/14 07:53:12;;;;;;;10.97;9.87;;;;;;;;;;754980;78;26428;-69
2022/04/14 07:54:18;;;;;;;10.70;9.80;;;;;;;;;;753509;79;26511;-69
2022/04/14 07:57:25;;;;;;;11.67;9.67;;;;;;;;;;753858;79;26914;-68
2022/04/14 07:58:32;;;;;;;10.57;9.57;;;;;;;;;;776327;76;26540;-69
2022/04/14 07:59:40;;;;;;;11.07;10.00;;;;;;;;;;776310;76;26917;-70
2022/04/14 08:00:46;;;;;;;14.20;10.90;;;;;;;;;;754402;78;26661;-69
2022/04/14 08:01:51;;;;;;;14.70;11.70;;;;;;;;;;776487;76;26784;-69
2022/04/14 08:02:58;;;;;;;13.17;11.63;;;;;;;;;;762803;78;26942;-68
2022/04/14 08:04:05;;;;;;;12.90;11.80;;;;;;;;;;760711;78;26939;-69
2022/04/14 08:07:12;;;;;;;17.13;10.67;;;;;;;;;;768379;77;26879;-71
2022/04/14 08:08:18;;;;;;;11.23;10.13;;;;;;;;;;741836;80;26454;-70
2022/04/14 08:09:22;;;;;;;11.40;10.30;;;;;;;;;;749885;79;26501;-69
2022/04/14 08:10:25;;;;;;;11.30;10.20;;;;;;;;;;750039;79;26571;-72
2022/04/14 08:11:34;;;;;;;11.00;10.10;;;;;;;;;;749823;79;26383;-69
2022/04/14 08:12:38;;;;;;;13.90;10.97;;;;;;;;;;749870;79;26426;-70
2022/04/14 08:13:42;;;;;;;11.77;10.10;;;;;;;;;;750510;79;26824;-70
2022/04/14 08:14:47;;;;;;;11.60;10.40;;;;;;;;;;750204;79;26427;-70
2022/04/14 08:18:03;;;;;;;13.50;11.33;;;;;;;;;;757303;78;26891;-70
2022/04/14 08:19:07;;;;;;;12.27;11.17;;;;;;;;;;757087;78;26386;-70
2022/04/14 08:20:12;;;;;;;11.23;9.93;;;;;;;;;;757086;78;26618;-69
2022/04/14 08:21:16;;;;;;;11.10;10.00;;;;;;;;;;757089;78;26435;-69
2022/04/14 08:22:19;;;;;;;9.93;9.03;;;;;;;;;;757143;78;26308;-69
2022/04/14 08:23:22;;;;;;;11.10;10.10;;;;;;;;;;757117;78;26446;-69
2022/04/14 08:24:27;;;;;;;10.70;9.70;;;;;;;;;;757155;78;26493;-69
2022/04/14 08:29:02;;;;;;;12.20;11.00;;;;;;;;;;769345;77;26840;-72
2022/04/14 08:38:22;;;;;;;11.37;10.37;;;;;;;;;;760902;78;26432;-69
2022/04/14 08:39:25;;;;;;;12.73;11.43;;;;;;;;;;760734;78;26509;-69
2022/04/14 08:40:31;;;;;;;13.00;11.73;;;;;;;;;;760766;78;26827;-70
2022/04/14 08:41:37;;;;;;;12.73;11.63;;;;;;;;;;760884;78;26940;-69
2022/04/14 08:49:43;;;;;;;20.00;17.90;;;;;;;;;;775882;76;26470;-69
2022/04/14 08:50:47;;;;;;;17.13;15.27;;;;;;;;;;775825;76;26692;-69
2022/04/14 08:51:51;;;;;;;14.63;13.30;;;;;;;;;;775778;76;26386;-70
2022/04/14 08:52:58;;;;;;;13.20;12.00;;;;;;;;;;775781;76;26426;-69
2022/04/14 08:54:03;;;;;;;13.90;12.50;;;;;;;;;;775749;76;26474;-70
2022/04/14 08:58:52;;;;;;;11.77;10.67;;;;;;;;;;773822;76;26428;-70
2022/04/14 08:59:58;;;;;;;12.50;11.30;;;;;;;;;;773990;76;26483;-70
2022/04/14 09:01:01;;;;;;;13.90;12.40;;;;;;;;;;773535;76;26539;-70
2022/04/14 09:02:11;;;;;;;15.57;13.93;;;;;;;;;;767863;76;26594;-69
2022/04/14 09:03:13;;;;;;;15.17;13.60;;;;;;;;;;773511;76;26616;-69
2022/04/14 09:04:18;;;;;;;14.20;12.90;;;;;;;;;;773524;76;26535;-69
2022/04/14 09:08:49;;;;;;;15.77;14.13;;;;;;;;;;767309;77;26416;-68
2022/04/14 09:09:53;;;;;;;15.80;13.77;;;;;;;;;;766688;77;26539;-69
2022/04/14 09:10:56;;;;;;;14.67;13.07;;;;;;;;;;780633;76;26868;-70
2022/04/14 09:12:03;;;;;;;13.73;12.20;;;;;;;;;;784551;75;26591;-69
2022/04/14 09:13:15;;;;;;;13.50;12.10;;;;;;;;;;772948;77;26536;-69
2022/04/14 09:14:21;;;;;;;14.33;12.83;;;;;;;;;;773021;77;26482;-69
2022/04/14 09:19:38;;;;;;;13.03;11.73;;;;;;;;;;765878;77;26408;-71
2022/04/14 09:20:53;;;;;;;12.50;11.10;;;;;;;;;;826851;72;26436;-69
2022/04/14 09:22:02;;;;;;;11.40;10.40;;;;;;;;;;825781;72;26871;-71
2022/04/14 09:23:12;;;;;;;11.87;10.77;;;;;;;;;;808682;73;26457;-69
2022/04/14 09:24:17;;;;;;;12.13;10.70;;;;;;;;;;792880;75;26872;-69
2022/04/14 09:27:09;;;;;;;10.87;9.87;;;;;;;;;;800785;74;26427;-68
2022/04/14 09:28:15;;;;;;;10.93;9.70;;;;;;;;;;786471;75;26465;-69
2022/04/14 09:29:21;;;;;;;11.63;9.60;;;;;;;;;;801049;74;26535;-70
2022/04/14 09:30:24;;;;;;;10.93;9.80;;;;;;;;;;781627;75;26420;-70
2022/04/14 09:31:28;;;;;;;10.63;9.57;;;;;;;;;;800866;74;26516;-70
2022/04/14 09:32:32;;;;;;;10.70;9.70;;;;;;;;;;786299;75;26434;-69
2022/04/14 09:33:35;;;;;;;10.60;9.60;;;;;;;;;;777810;76;26848;-69
2022/04/14 09:34:49;;;;;;;11.17;9.73;;;;;;;;;;819790;72;26837;-69
2022/04/14 09:35:50;;;;;;;10.30;9.40;;;;;;;;;;818957;72;26390;-70
2022/04/14 09:36:54;;;;;;;10.97;9.93;;;;;;;;;;816581;72;26278;-69
2022/04/14 09:38:02;;;;;;;11.20;9.20;;;;;;;;;;813215;72;26457;-69
2022/04/14 09:39:06;;;;;;;10.17;9.17;;;;;;;;;;819709;72;26438;-68
2022/04/14 09:40:12;;;;;;;12.30;9.80;;;;;;;;;;819693;72;26481;-67
2022/04/14 09:41:26;;;;;;;12.83;9.23;;;;;;;;;;819743;72;26398;-69
2022/04/14 09:42:32;;;;;;;9.50;7.80;;;;;;;;;;819710;72;26220;-69
2022/04/14 09:43:35;;;;;;;10.33;9.07;;;;;;;;;;819748;72;26413;-68
2022/04/14 09:44:42;;;;;;;10.53;9.40;;;;;;;;;;819792;72;26448;-69
2022/04/14 09:45:49;;;;;;;9.57;8.77;;;;;;;;;;819825;72;26454;-68
2022/04/14 09:46:52;;;;;;;11.23;8.67;;;;;;;;;;819737;72;26565;-71
2022/04/14 09:47:55;;;;;;;10.00;8.67;;;;;;;;;;819884;72;26454;-69
2022/04/14 09:49:09;;;;;;;9.10;8.30;;;;;;;;;;819759;72;26663;-69
2022/04/14 09:50:13;;;;;;;8.80;7.90;;;;;;;;;;819775;72;26437;-70
2022/04/14 09:51:18;;;;;;;8.07;7.37;;;;;;;;;;791031;74;26543;-70
2022/04/14 09:52:21;;;;;;;9.03;8.10;;;;;;;;;;806945;72;26337;-70
2022/04/14 09:53:26;;;;;;;10.57;8.20;;;;;;;;;;819715;72;26455;-67
2022/04/14 09:54:29;;;;;;;8.57;7.77;;;;;;;;;;819561;72;26489;-68
2022/04/14 09:57:35;;;;;;;8.50;7.10;;;;;;;;;;738586;80;26464;-69
2022/04/14 09:58:40;;;;;;;8.23;7.43;;;;;;;;;;759302;77;26374;-68
2022/04/14 09:59:46;;;;;;;8.00;7.20;;;;;;;;;;765784;76;26433;-69
2022/04/14 10:00:50;;;;;;;8.90;7.23;;;;;;;;;;778104;76;26854;-69
2022/04/14 10:02:10;;;;;;;9.17;8.30;;;;;;;;;;778301;76;26489;-69
2022/04/14 10:08:51;;;;;;;8.03;7.33;;;;;;;;;;772834;77;26731;-68
2022/04/14 10:10:03;;;;;;;7.87;7.07;;;;;;;;;;772852;77;26767;-68
2022/04/14 10:11:09;;;;;;;13.43;7.40;;;;;;;;;;773121;77;26814;-69
2022/04/14 10:12:18;;;;;;;8.03;7.33;;;;;;;;;;756247;78;26993;-69
2022/04/14 10:13:21;;;;;;;7.90;7.20;;;;;;;;;;773194;77;26482;-69
2022/04/14 10:14:25;;;;;;;8.33;6.30;;;;;;;;;;773293;77;26529;-68
2022/04/14 10:17:13;;;;;;;7.53;6.83;;;;;;;;;;762063;78;26907;-68
2022/04/14 10:18:19;;;;;;;7.07;6.47;;;;;;;;;;762085;78;26325;-68
2022/04/14 10:19:23;;;;;;;7.27;6.57;;;;;;;;;;777790;76;26487;-68
2022/04/14 10:20:27;;;;;;;7.53;6.93;;;;;;;;;;776830;76;26874;-70
2022/04/14 10:21:31;;;;;;;7.37;6.77;;;;;;;;;;762167;78;26505;-68
2022/04/14 10:22:35;;;;;;;7.33;6.63;;;;;;;;;;761688;78;26502;-67
2022/04/14 10:23:41;;;;;;;7.47;6.77;;;;;;;;;;761618;78;26494;-68
2022/04/14 10:26:43;;;;;;;8.93;8.13;;;;;;;;;;772986;77;26497;-71
2022/04/14 10:27:50;;;;;;;9.70;8.20;;;;;;;;;;778361;76;26514;-73
2022/04/14 10:28:55;;;;;;;9.80;8.67;;;;;;;;;;772439;76;26462;-69
2022/04/14 10:29:58;;;;;;;8.50;7.60;;;;;;;;;;777607;76;26525;-69
2022/04/14 10:31:02;;;;;;;9.10;8.30;;;;;;;;;;777672;76;26465;-70
2022/04/14 10:32:07;;;;;;;8.87;8.17;;;;;;;;;;777679;76;26418;-69
2022/04/14 10:33:12;;;;;;;8.20;7.50;;;;;;;;;;777520;76;26987;-70
2022/04/14 10:37:54;;;;;;;7.27;6.67;;;;;;;;;;773336;77;26363;-69
2022/04/14 10:38:57;;;;;;;7.27;6.60;;;;;;;;;;773235;77;26918;-69
2022/04/14 10:40:03;;;;;;;8.70;6.40;;;;;;;;;;773266;77;26494;-68
2022/04/14 10:41:13;;;;;;;8.30;6.23;;;;;;;;;;773305;77;26662;-68
2022/04/14 10:42:23;;;;;;;6.50;6.00;;;;;;;;;;773224;77;26541;-70
2022/04/14 10:43:26;;;;;;;6.37;5.87;;;;;;;;;;773226;77;27110;-69
2022/04/14 10:48:33;;;;;;;6.97;6.27;;;;;;;;;;777631;76;26598;-69
2022/04/14 10:49:37;;;;;;;6.30;5.60;;;;;;;;;;777148;76;26608;-73
2022/04/14 10:50:42;;;;;;;6.40;5.90;;;;;;;;;;759295;77;26619;-69